sensor_id;sensor_type;location;lat;lon;timestamp;P1;durP1;ratioP1;P2;durP2;ratioP2
23394;SDS011;11870;53.084;18.206;2023-03-14T00:01:19;10.55;;;4.63;;
23394;SDS011;11870;53.084;18.206;2023-03-14T00:03:48;11.63;;;5.40;;
23394;SDS011;11870;53.084;18.206;2023-03-14T00:06:16;14.02;;;5.03;;
23394;SDS011;11870;53.084;18.206;2023-03-14T00:08:42;12.15;;;4.70;;
23394;SDS011;11870;53.084;18.206;2023-03-14T00:11:17;8.77;;;4.38;;
23394;SDS011;11870;53.084;18.206;2023-03-14T00:13:46;14.68;;;4.97;;
23394;SDS011;11870;53.084;18.206;2023-03-14T00:16:12;12.82;;;5.05;;
23394;SDS011;11870;53.084;18.206;2023-03-14T00:18:39;10.23;;;4.70;;
23394;SDS011;11870;53.084;18.206;2023-03-14T00:21:06;8.88;;;4.55;;
23394;SDS011;11870;53.084;18.206;2023-03-14T00:23:34;12.50;;;4.95;;
23394;SDS011;11870;53.084;18.206;2023-03-14T00:26:02;10.90;;;5.00;;
23394;SDS011;11870;53.084;18.206;2023-03-14T00:28:29;10.77;;;4.80;;
23394;SDS011;11870;53.084;18.206;2023-03-14T00:30:56;7.13;;;4.43;;
23394;SDS011;11870;53.084;18.206;2023-03-14T00:33:22;9.77;;;4.72;;
23394;SDS011;11870;53.084;18.206;2023-03-14T00:35:53;7.38;;;4.18;;
23394;SDS011;11870;53.084;18.206;2023-03-14T00:38:19;10.75;;;4.55;;
23394;SDS011;11870;53.084;18.206;2023-03-14T00:40:45;8.48;;;4.30;;
23394;SDS011;11870;53.084;18.206;2023-03-14T00:43:11;10.38;;;4.57;;
23394;SDS011;11870;53.084;18.206;2023-03-14T00:45:38;9.13;;;4.53;;
23394;SDS011;11870;53.084;18.206;2023-03-14T00:48:04;9.02;;;4.47;;
23394;SDS011;11870;53.084;18.206;2023-03-14T00:50:31;8.00;;;4.40;;
23394;SDS011;11870;53.084;18.206;2023-03-14T00:52:57;9.07;;;4.30;;
23394;SDS011;11870;53.084;18.206;2023-03-14T00:55:24;8.07;;;4.40;;
23394;SDS011;11870;53.084;18.206;2023-03-14T00:57:50;7.78;;;4.25;;
23394;SDS011;11870;53.084;18.206;2023-03-14T01:00:17;9.10;;;4.00;;
23394;SDS011;11870;53.084;18.206;2023-03-14T01:02:43;9.35;;;4.18;;
23394;SDS011;11870;53.084;18.206;2023-03-14T01:05:10;6.13;;;3.50;;
23394;SDS011;11870;53.084;18.206;2023-03-14T01:07:36;10.63;;;4.22;;
23394;SDS011;11870;53.084;18.206;2023-03-14T01:10:04;8.00;;;3.88;;
23394;SDS011;11870;53.084;18.206;2023-03-14T01:12:32;8.25;;;3.60;;
23394;SDS011;11870;53.084;18.206;2023-03-14T01:14:58;7.53;;;3.80;;
23394;SDS011;11870;53.084;18.206;2023-03-14T01:17:24;7.55;;;3.80;;
23394;SDS011;11870;53.084;18.206;2023-03-14T01:19:51;6.55;;;3.60;;
23394;SDS011;11870;53.084;18.206;2023-03-14T01:22:17;7.32;;;3.60;;
23394;SDS011;11870;53.084;18.206;2023-03-14T01:24:43;7.95;;;3.97;;
23394;SDS011;11870;53.084;18.206;2023-03-14T01:27:09;7.35;;;3.65;;
23394;SDS011;11870;53.084;18.206;2023-03-14T01:29:37;5.93;;;3.45;;
23394;SDS011;11870;53.084;18.206;2023-03-14T01:32:03;8.50;;;3.40;;
23394;SDS011;11870;53.084;18.206;2023-03-14T01:34:29;6.32;;;3.35;;
23394;SDS011;11870;53.084;18.206;2023-03-14T01:36:56;7.63;;;3.40;;
23394;SDS011;11870;53.084;18.206;2023-03-14T01:39:22;5.03;;;2.95;;
23394;SDS011;11870;53.084;18.206;2023-03-14T01:41:48;5.72;;;3.30;;
23394;SDS011;11870;53.084;18.206;2023-03-14T01:44:15;6.22;;;3.45;;
23394;SDS011;11870;53.084;18.206;2023-03-14T01:46:42;5.90;;;3.00;;
23394;SDS011;11870;53.084;18.206;2023-03-14T01:49:11;6.70;;;3.22;;
23394;SDS011;11870;53.084;18.206;2023-03-14T01:51:47;7.22;;;3.42;;
23394;SDS011;11870;53.084;18.206;2023-03-14T01:54:17;5.10;;;2.85;;
23394;SDS011;11870;53.084;18.206;2023-03-14T01:56:46;5.47;;;2.90;;
23394;SDS011;11870;53.084;18.206;2023-03-14T01:59:14;5.07;;;2.70;;
23394;SDS011;11870;53.084;18.206;2023-03-14T02:01:41;5.25;;;2.83;;
23394;SDS011;11870;53.084;18.206;2023-03-14T02:04:08;5.22;;;2.42;;
23394;SDS011;11870;53.084;18.206;2023-03-14T02:06:37;3.80;;;2.00;;
23394;SDS011;11870;53.084;18.206;2023-03-14T02:09:06;3.53;;;2.22;;
23394;SDS011;11870;53.084;18.206;2023-03-14T02:11:32;5.28;;;2.00;;
23394;SDS011;11870;53.084;18.206;2023-03-14T02:13:59;4.03;;;2.08;;
23394;SDS011;11870;53.084;18.206;2023-03-14T02:16:26;4.03;;;2.05;;
23394;SDS011;11870;53.084;18.206;2023-03-14T02:18:53;2.70;;;2.10;;
23394;SDS011;11870;53.084;18.206;2023-03-14T02:21:37;4.22;;;2.10;;
23394;SDS011;11870;53.084;18.206;2023-03-14T02:24:25;3.50;;;1.90;;
23394;SDS011;11870;53.084;18.206;2023-03-14T02:27:01;3.70;;;2.08;;
23394;SDS011;11870;53.084;18.206;2023-03-14T02:29:27;2.95;;;1.80;;
23394;SDS011;11870;53.084;18.206;2023-03-14T02:31:54;2.55;;;1.65;;
23394;SDS011;11870;53.084;18.206;2023-03-14T02:34:20;3.25;;;1.67;;
23394;SDS011;11870;53.084;18.206;2023-03-14T02:36:46;5.05;;;1.88;;
23394;SDS011;11870;53.084;18.206;2023-03-14T02:39:14;3.97;;;1.80;;
23394;SDS011;11870;53.084;18.206;2023-03-14T02:41:41;2.22;;;1.55;;
23394;SDS011;11870;53.084;18.206;2023-03-14T02:44:10;2.40;;;1.50;;
23394;SDS011;11870;53.084;18.206;2023-03-14T02:46:36;2.33;;;1.50;;
23394;SDS011;11870;53.084;18.206;2023-03-14T02:49:04;3.45;;;1.52;;
23394;SDS011;11870;53.084;18.206;2023-03-14T02:51:30;2.08;;;1.20;;
23394;SDS011;11870;53.084;18.206;2023-03-14T02:53:58;2.63;;;1.58;;
23394;SDS011;11870;53.084;18.206;2023-03-14T02:56:24;2.40;;;1.42;;
23394;SDS011;11870;53.084;18.206;2023-03-14T02:58:51;3.50;;;1.20;;
23394;SDS011;11870;53.084;18.206;2023-03-14T03:01:17;1.40;;;1.20;;
23394;SDS011;11870;53.084;18.206;2023-03-14T03:03:44;2.90;;;1.10;;
23394;SDS011;11870;53.084;18.206;2023-03-14T03:06:10;2.03;;;1.15;;
23394;SDS011;11870;53.084;18.206;2023-03-14T03:08:37;1.75;;;1.30;;
23394;SDS011;11870;53.084;18.206;2023-03-14T03:11:03;1.65;;;1.10;;
23394;SDS011;11870;53.084;18.206;2023-03-14T03:13:30;1.48;;;1.17;;
23394;SDS011;11870;53.084;18.206;2023-03-14T03:15:56;2.65;;;1.23;;
23394;SDS011;11870;53.084;18.206;2023-03-14T03:18:23;1.60;;;1.20;;
23394;SDS011;11870;53.084;18.206;2023-03-14T03:20:49;1.88;;;1.30;;
23394;SDS011;11870;53.084;18.206;2023-03-14T03:23:15;3.25;;;1.10;;
23394;SDS011;11870;53.084;18.206;2023-03-14T03:25:42;2.40;;;1.30;;
23394;SDS011;11870;53.084;18.206;2023-03-14T03:28:14;3.30;;;1.10;;
23394;SDS011;11870;53.084;18.206;2023-03-14T03:30:41;2.80;;;1.33;;
23394;SDS011;11870;53.084;18.206;2023-03-14T03:33:08;1.73;;;1.20;;
23394;SDS011;11870;53.084;18.206;2023-03-14T03:35:35;1.70;;;1.30;;
23394;SDS011;11870;53.084;18.206;2023-03-14T03:38:07;1.27;;;0.95;;
23394;SDS011;11870;53.084;18.206;2023-03-14T03:40:33;2.25;;;1.30;;
23394;SDS011;11870;53.084;18.206;2023-03-14T03:43:00;1.48;;;1.13;;
23394;SDS011;11870;53.084;18.206;2023-03-14T03:45:26;2.75;;;1.25;;
23394;SDS011;11870;53.084;18.206;2023-03-14T03:47:53;1.83;;;1.20;;
23394;SDS011;11870;53.084;18.206;2023-03-14T03:50:19;2.42;;;1.10;;
23394;SDS011;11870;53.084;18.206;2023-03-14T03:52:45;2.15;;;1.10;;
23394;SDS011;11870;53.084;18.206;2023-03-14T03:55:11;1.58;;;1.02;;
23394;SDS011;11870;53.084;18.206;2023-03-14T03:57:38;1.73;;;1.27;;
23394;SDS011;11870;53.084;18.206;2023-03-14T04:00:05;1.95;;;1.10;;
23394;SDS011;11870;53.084;18.206;2023-03-14T04:02:34;1.80;;;1.00;;
23394;SDS011;11870;53.084;18.206;2023-03-14T04:05:00;2.53;;;1.20;;
23394;SDS011;11870;53.084;18.206;2023-03-14T04:07:27;2.78;;;1.50;;
23394;SDS011;11870;53.084;18.206;2023-03-14T04:09:53;3.42;;;1.27;;
23394;SDS011;11870;53.084;18.206;2023-03-14T04:12:19;3.45;;;1.73;;
23394;SDS011;11870;53.084;18.206;2023-03-14T04:14:46;2.45;;;1.35;;
23394;SDS011;11870;53.084;18.206;2023-03-14T04:17:12;4.88;;;1.98;;
23394;SDS011;11870;53.084;18.206;2023-03-14T04:19:39;4.15;;;1.80;;
23394;SDS011;11870;53.084;18.206;2023-03-14T04:22:06;3.65;;;1.65;;
23394;SDS011;11870;53.084;18.206;2023-03-14T04:24:32;3.72;;;2.10;;
23394;SDS011;11870;53.084;18.206;2023-03-14T04:26:58;3.75;;;2.08;;
23394;SDS011;11870;53.084;18.206;2023-03-14T04:29:25;3.42;;;1.88;;
23394;SDS011;11870;53.084;18.206;2023-03-14T04:31:51;4.07;;;2.08;;
23394;SDS011;11870;53.084;18.206;2023-03-14T04:34:17;3.38;;;2.13;;
23394;SDS011;11870;53.084;18.206;2023-03-14T04:36:44;5.10;;;2.67;;
23394;SDS011;11870;53.084;18.206;2023-03-14T04:39:11;5.43;;;2.30;;
23394;SDS011;11870;53.084;18.206;2023-03-14T04:41:37;2.92;;;1.80;;
23394;SDS011;11870;53.084;18.206;2023-03-14T04:44:04;4.53;;;1.80;;
23394;SDS011;11870;53.084;18.206;2023-03-14T04:46:30;5.35;;;2.17;;
23394;SDS011;11870;53.084;18.206;2023-03-14T04:48:56;7.70;;;3.50;;
23394;SDS011;11870;53.084;18.206;2023-03-14T04:51:23;10.50;;;3.97;;
23394;SDS011;11870;53.084;18.206;2023-03-14T04:53:52;5.80;;;2.50;;
23394;SDS011;11870;53.084;18.206;2023-03-14T04:56:20;4.95;;;2.45;;
23394;SDS011;11870;53.084;18.206;2023-03-14T04:58:46;2.95;;;2.25;;
23394;SDS011;11870;53.084;18.206;2023-03-14T05:01:13;5.07;;;2.78;;
23394;SDS011;11870;53.084;18.206;2023-03-14T05:03:39;5.85;;;2.90;;
23394;SDS011;11870;53.084;18.206;2023-03-14T05:06:05;5.22;;;3.00;;
23394;SDS011;11870;53.084;18.206;2023-03-14T05:08:32;10.75;;;3.53;;
23394;SDS011;11870;53.084;18.206;2023-03-14T05:10:58;6.13;;;3.05;;
23394;SDS011;11870;53.084;18.206;2023-03-14T05:13:25;4.38;;;2.80;;
23394;SDS011;11870;53.084;18.206;2023-03-14T05:15:51;4.80;;;2.85;;
23394;SDS011;11870;53.084;18.206;2023-03-14T05:18:18;4.68;;;2.60;;
23394;SDS011;11870;53.084;18.206;2023-03-14T05:20:44;5.00;;;2.83;;
23394;SDS011;11870;53.084;18.206;2023-03-14T05:23:10;6.68;;;3.20;;
23394;SDS011;11870;53.084;18.206;2023-03-14T05:25:37;7.53;;;3.50;;
23394;SDS011;11870;53.084;18.206;2023-03-14T05:28:03;4.82;;;3.42;;
23394;SDS011;11870;53.084;18.206;2023-03-14T05:30:30;6.05;;;3.58;;
23394;SDS011;11870;53.084;18.206;2023-03-14T05:32:57;6.47;;;3.78;;
23394;SDS011;11870;53.084;18.206;2023-03-14T05:35:23;5.57;;;3.85;;
23394;SDS011;11870;53.084;18.206;2023-03-14T05:37:50;6.13;;;3.55;;
23394;SDS011;11870;53.084;18.206;2023-03-14T05:40:16;6.50;;;3.60;;
23394;SDS011;11870;53.084;18.206;2023-03-14T05:42:42;8.65;;;4.10;;
23394;SDS011;11870;53.084;18.206;2023-03-14T05:45:09;8.13;;;4.03;;
23394;SDS011;11870;53.084;18.206;2023-03-14T05:47:35;5.68;;;3.50;;
23394;SDS011;11870;53.084;18.206;2023-03-14T05:50:01;5.95;;;3.42;;
23394;SDS011;11870;53.084;18.206;2023-03-14T05:52:28;8.32;;;3.95;;
23394;SDS011;11870;53.084;18.206;2023-03-14T05:54:54;5.70;;;3.83;;
23394;SDS011;11870;53.084;18.206;2023-03-14T05:57:20;5.45;;;3.35;;
23394;SDS011;11870;53.084;18.206;2023-03-14T05:59:47;7.35;;;3.60;;
23394;SDS011;11870;53.084;18.206;2023-03-14T06:02:13;5.10;;;3.28;;
23394;SDS011;11870;53.084;18.206;2023-03-14T06:04:40;6.30;;;3.40;;
23394;SDS011;11870;53.084;18.206;2023-03-14T06:07:06;6.32;;;3.40;;
23394;SDS011;11870;53.084;18.206;2023-03-14T06:09:32;8.82;;;3.53;;
23394;SDS011;11870;53.084;18.206;2023-03-14T06:11:59;5.35;;;3.45;;
23394;SDS011;11870;53.084;18.206;2023-03-14T06:14:25;5.68;;;3.35;;
23394;SDS011;11870;53.084;18.206;2023-03-14T06:16:51;5.85;;;3.78;;
23394;SDS011;11870;53.084;18.206;2023-03-14T06:19:18;5.10;;;3.13;;
23394;SDS011;11870;53.084;18.206;2023-03-14T06:21:44;8.13;;;3.83;;
23394;SDS011;11870;53.084;18.206;2023-03-14T06:24:11;6.05;;;3.33;;
23394;SDS011;11870;53.084;18.206;2023-03-14T06:26:37;5.75;;;3.42;;
23394;SDS011;11870;53.084;18.206;2023-03-14T06:29:03;5.90;;;3.50;;
23394;SDS011;11870;53.084;18.206;2023-03-14T06:31:30;6.03;;;3.40;;
23394;SDS011;11870;53.084;18.206;2023-03-14T06:33:57;11.02;;;3.78;;
23394;SDS011;11870;53.084;18.206;2023-03-14T06:36:23;6.43;;;3.47;;
23394;SDS011;11870;53.084;18.206;2023-03-14T06:38:50;8.68;;;3.50;;
23394;SDS011;11870;53.084;18.206;2023-03-14T06:41:16;6.32;;;3.33;;
23394;SDS011;11870;53.084;18.206;2023-03-14T06:43:43;5.65;;;3.10;;
23394;SDS011;11870;53.084;18.206;2023-03-14T06:46:09;6.90;;;3.22;;
23394;SDS011;11870;53.084;18.206;2023-03-14T06:48:35;7.00;;;3.40;;
23394;SDS011;11870;53.084;18.206;2023-03-14T06:51:01;6.95;;;3.05;;
23394;SDS011;11870;53.084;18.206;2023-03-14T06:53:28;6.20;;;3.42;;
23394;SDS011;11870;53.084;18.206;2023-03-14T06:55:54;5.95;;;3.05;;
23394;SDS011;11870;53.084;18.206;2023-03-14T06:58:21;6.00;;;3.28;;
23394;SDS011;11870;53.084;18.206;2023-03-14T07:00:47;7.57;;;3.50;;
23394;SDS011;11870;53.084;18.206;2023-03-14T07:03:13;7.40;;;3.15;;
23394;SDS011;11870;53.084;18.206;2023-03-14T07:05:40;6.25;;;3.72;;
23394;SDS011;11870;53.084;18.206;2023-03-14T07:08:09;5.63;;;3.28;;
23394;SDS011;11870;53.084;18.206;2023-03-14T07:10:36;6.03;;;3.17;;
23394;SDS011;11870;53.084;18.206;2023-03-14T07:13:02;5.78;;;3.38;;
23394;SDS011;11870;53.084;18.206;2023-03-14T07:15:29;5.45;;;3.55;;
23394;SDS011;11870;53.084;18.206;2023-03-14T07:17:56;8.07;;;3.95;;
23394;SDS011;11870;53.084;18.206;2023-03-14T07:20:22;7.47;;;3.95;;
23394;SDS011;11870;53.084;18.206;2023-03-14T07:22:49;6.50;;;3.85;;
23394;SDS011;11870;53.084;18.206;2023-03-14T07:25:16;10.45;;;4.78;;
23394;SDS011;11870;53.084;18.206;2023-03-14T07:27:43;7.45;;;3.63;;
23394;SDS011;11870;53.084;18.206;2023-03-14T07:30:10;8.93;;;3.97;;
23394;SDS011;11870;53.084;18.206;2023-03-14T07:32:36;8.15;;;3.80;;
23394;SDS011;11870;53.084;18.206;2023-03-14T07:35:03;7.30;;;3.78;;
23394;SDS011;11870;53.084;18.206;2023-03-14T07:37:29;6.90;;;3.90;;
23394;SDS011;11870;53.084;18.206;2023-03-14T07:39:56;9.48;;;3.65;;
23394;SDS011;11870;53.084;18.206;2023-03-14T07:42:22;6.95;;;3.85;;
23394;SDS011;11870;53.084;18.206;2023-03-14T07:44:49;9.25;;;4.50;;
23394;SDS011;11870;53.084;18.206;2023-03-14T07:47:15;6.53;;;3.90;;
23394;SDS011;11870;53.084;18.206;2023-03-14T07:49:41;7.25;;;3.65;;
23394;SDS011;11870;53.084;18.206;2023-03-14T07:52:08;9.57;;;4.68;;
23394;SDS011;11870;53.084;18.206;2023-03-14T07:54:34;7.38;;;3.75;;
23394;SDS011;11870;53.084;18.206;2023-03-14T07:57:01;6.22;;;3.63;;
23394;SDS011;11870;53.084;18.206;2023-03-14T07:59:27;7.55;;;3.60;;
23394;SDS011;11870;53.084;18.206;2023-03-14T08:01:53;6.32;;;3.33;;
23394;SDS011;11870;53.084;18.206;2023-03-14T08:04:20;7.75;;;3.58;;
23394;SDS011;11870;53.084;18.206;2023-03-14T08:06:46;8.02;;;3.38;;
23394;SDS011;11870;53.084;18.206;2023-03-14T08:09:12;6.18;;;2.92;;
23394;SDS011;11870;53.084;18.206;2023-03-14T08:11:39;5.88;;;3.47;;
23394;SDS011;11870;53.084;18.206;2023-03-14T08:14:05;6.70;;;3.00;;
23394;SDS011;11870;53.084;18.206;2023-03-14T08:16:32;6.18;;;3.22;;
23394;SDS011;11870;53.084;18.206;2023-03-14T08:18:58;4.07;;;2.92;;
23394;SDS011;11870;53.084;18.206;2023-03-14T08:21:25;5.28;;;3.00;;
23394;SDS011;11870;53.084;18.206;2023-03-14T08:23:51;5.15;;;3.10;;
23394;SDS011;11870;53.084;18.206;2023-03-14T08:26:18;7.45;;;3.15;;
23394;SDS011;11870;53.084;18.206;2023-03-14T08:28:44;5.15;;;2.70;;
23394;SDS011;11870;53.084;18.206;2023-03-14T08:31:10;4.20;;;2.30;;
23394;SDS011;11870;53.084;18.206;2023-03-14T08:33:39;3.67;;;2.58;;
23394;SDS011;11870;53.084;18.206;2023-03-14T08:36:06;5.95;;;2.58;;
23394;SDS011;11870;53.084;18.206;2023-03-14T08:38:32;4.60;;;2.72;;
23394;SDS011;11870;53.084;18.206;2023-03-14T08:40:59;5.63;;;2.80;;
23394;SDS011;11870;53.084;18.206;2023-03-14T08:43:27;6.50;;;2.67;;
23394;SDS011;11870;53.084;18.206;2023-03-14T08:45:58;5.88;;;2.65;;
23394;SDS011;11870;53.084;18.206;2023-03-14T08:48:26;3.67;;;2.28;;
23394;SDS011;11870;53.084;18.206;2023-03-14T08:50:52;3.47;;;2.35;;
23394;SDS011;11870;53.084;18.206;2023-03-14T08:53:19;4.35;;;2.40;;
23394;SDS011;11870;53.084;18.206;2023-03-14T08:55:51;6.00;;;2.25;;
23394;SDS011;11870;53.084;18.206;2023-03-14T08:58:19;4.20;;;2.30;;
23394;SDS011;11870;53.084;18.206;2023-03-14T09:00:45;3.70;;;1.90;;
23394;SDS011;11870;53.084;18.206;2023-03-14T09:03:12;3.17;;;2.13;;
23394;SDS011;11870;53.084;18.206;2023-03-14T09:05:38;2.97;;;2.08;;
23394;SDS011;11870;53.084;18.206;2023-03-14T09:08:05;3.53;;;2.20;;
23394;SDS011;11870;53.084;18.206;2023-03-14T09:10:31;4.10;;;2.33;;
23394;SDS011;11870;53.084;18.206;2023-03-14T09:12:58;5.07;;;2.15;;
23394;SDS011;11870;53.084;18.206;2023-03-14T09:15:25;3.67;;;2.15;;
23394;SDS011;11870;53.084;18.206;2023-03-14T09:17:51;5.05;;;1.90;;
23394;SDS011;11870;53.084;18.206;2023-03-14T09:20:19;5.05;;;1.95;;
23394;SDS011;11870;53.084;18.206;2023-03-14T09:22:45;3.72;;;1.80;;
23394;SDS011;11870;53.084;18.206;2023-03-14T09:25:12;3.65;;;1.90;;
23394;SDS011;11870;53.084;18.206;2023-03-14T09:27:38;4.50;;;2.03;;
23394;SDS011;11870;53.084;18.206;2023-03-14T09:30:05;3.55;;;2.10;;
23394;SDS011;11870;53.084;18.206;2023-03-14T09:32:31;2.90;;;2.05;;
23394;SDS011;11870;53.084;18.206;2023-03-14T09:34:57;4.15;;;1.83;;
23394;SDS011;11870;53.084;18.206;2023-03-14T09:37:24;3.60;;;1.70;;
23394;SDS011;11870;53.084;18.206;2023-03-14T09:39:50;3.47;;;1.98;;
23394;SDS011;11870;53.084;18.206;2023-03-14T09:42:17;3.42;;;2.05;;
23394;SDS011;11870;53.084;18.206;2023-03-14T09:44:52;3.22;;;2.03;;
23394;SDS011;11870;53.084;18.206;2023-03-14T09:47:19;3.13;;;1.77;;
23394;SDS011;11870;53.084;18.206;2023-03-14T09:49:47;3.75;;;1.90;;
23394;SDS011;11870;53.084;18.206;2023-03-14T09:52:17;2.75;;;1.90;;
23394;SDS011;11870;53.084;18.206;2023-03-14T09:54:53;3.15;;;1.90;;
23394;SDS011;11870;53.084;18.206;2023-03-14T09:57:24;3.92;;;1.90;;
23394;SDS011;11870;53.084;18.206;2023-03-14T09:59:52;3.90;;;2.10;;
23394;SDS011;11870;53.084;18.206;2023-03-14T10:02:22;3.90;;;2.00;;
23394;SDS011;11870;53.084;18.206;2023-03-14T10:04:51;5.00;;;1.88;;
23394;SDS011;11870;53.084;18.206;2023-03-14T10:07:21;2.00;;;1.67;;
23394;SDS011;11870;53.084;18.206;2023-03-14T10:09:52;4.03;;;1.88;;
23394;SDS011;11870;53.084;18.206;2023-03-14T10:12:19;5.10;;;3.10;;
23394;SDS011;11870;53.084;18.206;2023-03-14T10:15:02;5.50;;;2.67;;
23394;SDS011;11870;53.084;18.206;2023-03-14T10:17:41;3.78;;;2.03;;
23394;SDS011;11870;53.084;18.206;2023-03-14T10:20:26;2.55;;;1.70;;
23394;SDS011;11870;53.084;18.206;2023-03-14T10:25:34;3.08;;;1.80;;
23394;SDS011;11870;53.084;18.206;2023-03-14T10:28:02;3.88;;;2.00;;
23394;SDS011;11870;53.084;18.206;2023-03-14T10:33:08;2.40;;;1.75;;
23394;SDS011;11870;53.084;18.206;2023-03-14T10:35:35;3.83;;;1.95;;
23394;SDS011;11870;53.084;18.206;2023-03-14T10:38:02;2.47;;;1.67;;
23394;SDS011;11870;53.084;18.206;2023-03-14T10:40:33;2.75;;;1.52;;
23394;SDS011;11870;53.084;18.206;2023-03-14T10:43:00;4.43;;;1.90;;
23394;SDS011;11870;53.084;18.206;2023-03-14T10:45:37;4.00;;;1.75;;
23394;SDS011;11870;53.084;18.206;2023-03-14T10:48:15;2.60;;;1.70;;
23394;SDS011;11870;53.084;18.206;2023-03-14T10:50:53;3.38;;;1.83;;
23394;SDS011;11870;53.084;18.206;2023-03-14T10:53:19;3.33;;;1.75;;
23394;SDS011;11870;53.084;18.206;2023-03-14T10:55:46;4.32;;;1.58;;
23394;SDS011;11870;53.084;18.206;2023-03-14T10:58:19;3.92;;;1.75;;
23394;SDS011;11870;53.084;18.206;2023-03-14T11:03:49;2.35;;;1.70;;
23394;SDS011;11870;53.084;18.206;2023-03-14T11:12:04;3.90;;;1.90;;
23394;SDS011;11870;53.084;18.206;2023-03-14T11:14:49;4.28;;;1.70;;
23394;SDS011;11870;53.084;18.206;2023-03-14T11:17:26;3.38;;;1.80;;
23394;SDS011;11870;53.084;18.206;2023-03-14T11:20:04;4.43;;;1.80;;
23394;SDS011;11870;53.084;18.206;2023-03-14T11:25:18;3.83;;;1.30;;
23394;SDS011;11870;53.084;18.206;2023-03-14T11:27:56;5.57;;;1.85;;
23394;SDS011;11870;53.084;18.206;2023-03-14T11:30:47;3.15;;;1.50;;
23394;SDS011;11870;53.084;18.206;2023-03-14T11:33:32;6.60;;;1.50;;
23394;SDS011;11870;53.084;18.206;2023-03-14T11:36:22;3.65;;;1.42;;
23394;SDS011;11870;53.084;18.206;2023-03-14T11:38:57;3.05;;;1.50;;
23394;SDS011;11870;53.084;18.206;2023-03-14T11:41:32;2.75;;;1.35;;
23394;SDS011;11870;53.084;18.206;2023-03-14T11:44:03;3.13;;;1.65;;
23394;SDS011;11870;53.084;18.206;2023-03-14T11:46:46;9.00;;;1.60;;
23394;SDS011;11870;53.084;18.206;2023-03-14T11:51:59;3.00;;;1.50;;
23394;SDS011;11870;53.084;18.206;2023-03-14T11:54:33;3.40;;;1.50;;
23394;SDS011;11870;53.084;18.206;2023-03-14T11:57:14;2.65;;;1.33;;
23394;SDS011;11870;53.084;18.206;2023-03-14T12:02:22;3.47;;;1.55;;
23394;SDS011;11870;53.084;18.206;2023-03-14T12:07:28;2.97;;;1.60;;
23394;SDS011;11870;53.084;18.206;2023-03-14T12:10:03;6.82;;;1.83;;
23394;SDS011;11870;53.084;18.206;2023-03-14T12:12:29;3.63;;;1.70;;
23394;SDS011;11870;53.084;18.206;2023-03-14T12:14:58;3.90;;;1.75;;
23394;SDS011;11870;53.084;18.206;2023-03-14T12:17:27;3.50;;;1.50;;
23394;SDS011;11870;53.084;18.206;2023-03-14T12:22:44;2.10;;;1.40;;
23394;SDS011;11870;53.084;18.206;2023-03-14T12:27:41;2.78;;;1.60;;
23394;SDS011;11870;53.084;18.206;2023-03-14T12:30:23;2.90;;;1.67;;
23394;SDS011;11870;53.084;18.206;2023-03-14T12:35:47;3.50;;;1.65;;
23394;SDS011;11870;53.084;18.206;2023-03-14T12:43:37;5.85;;;2.20;;
23394;SDS011;11870;53.084;18.206;2023-03-14T12:49:04;4.20;;;2.10;;
23394;SDS011;11870;53.084;18.206;2023-03-14T12:51:37;4.00;;;1.83;;
23394;SDS011;11870;53.084;18.206;2023-03-14T12:54:09;3.40;;;1.80;;
23394;SDS011;11870;53.084;18.206;2023-03-14T12:57:42;5.88;;;2.10;;
23394;SDS011;11870;53.084;18.206;2023-03-14T13:00:02;4.47;;;1.80;;
23394;SDS011;11870;53.084;18.206;2023-03-14T13:02:42;5.88;;;1.60;;
23394;SDS011;11870;53.084;18.206;2023-03-14T13:05:22;3.65;;;1.77;;
23394;SDS011;11870;53.084;18.206;2023-03-14T13:10:17;3.63;;;1.88;;
23394;SDS011;11870;53.084;18.206;2023-03-14T13:12:55;4.93;;;1.70;;
23394;SDS011;11870;53.084;18.206;2023-03-14T13:18:17;2.67;;;1.40;;
23394;SDS011;11870;53.084;18.206;2023-03-14T13:23:22;4.13;;;1.70;;
23394;SDS011;11870;53.084;18.206;2023-03-14T13:25:49;3.60;;;1.67;;
23394;SDS011;11870;53.084;18.206;2023-03-14T13:28:15;3.65;;;1.65;;
23394;SDS011;11870;53.084;18.206;2023-03-14T13:30:45;3.28;;;1.67;;
23394;SDS011;11870;53.084;18.206;2023-03-14T13:33:14;4.28;;;1.80;;
23394;SDS011;11870;53.084;18.206;2023-03-14T13:36:00;3.90;;;1.70;;
23394;SDS011;11870;53.084;18.206;2023-03-14T13:38:30;2.80;;;1.58;;
23394;SDS011;11870;53.084;18.206;2023-03-14T13:40:58;3.95;;;1.50;;
23394;SDS011;11870;53.084;18.206;2023-03-14T13:43:30;2.53;;;1.75;;
23394;SDS011;11870;53.084;18.206;2023-03-14T13:46:01;3.95;;;1.73;;
23394;SDS011;11870;53.084;18.206;2023-03-14T13:48:28;4.97;;;1.73;;
23394;SDS011;11870;53.084;18.206;2023-03-14T13:51:03;3.67;;;1.88;;
23394;SDS011;11870;53.084;18.206;2023-03-14T13:53:31;4.55;;;1.70;;
23394;SDS011;11870;53.084;18.206;2023-03-14T13:56:08;3.38;;;1.50;;
23394;SDS011;11870;53.084;18.206;2023-03-14T13:58:37;3.28;;;1.63;;
23394;SDS011;11870;53.084;18.206;2023-03-14T14:01:05;4.13;;;1.55;;
23394;SDS011;11870;53.084;18.206;2023-03-14T14:03:52;4.05;;;1.70;;
23394;SDS011;11870;53.084;18.206;2023-03-14T14:06:23;4.68;;;1.90;;
23394;SDS011;11870;53.084;18.206;2023-03-14T14:08:54;6.78;;;2.10;;
23394;SDS011;11870;53.084;18.206;2023-03-14T14:11:32;11.43;;;2.15;;
23394;SDS011;11870;53.084;18.206;2023-03-14T14:14:05;3.67;;;1.85;;
23394;SDS011;11870;53.084;18.206;2023-03-14T14:16:32;4.13;;;1.80;;
23394;SDS011;11870;53.084;18.206;2023-03-14T14:18:58;4.07;;;1.80;;
23394;SDS011;11870;53.084;18.206;2023-03-14T14:21:25;3.25;;;1.63;;
23394;SDS011;11870;53.084;18.206;2023-03-14T14:23:52;5.40;;;1.98;;
23394;SDS011;11870;53.084;18.206;2023-03-14T14:26:19;4.05;;;1.77;;
23394;SDS011;11870;53.084;18.206;2023-03-14T14:28:46;4.60;;;1.95;;
23394;SDS011;11870;53.084;18.206;2023-03-14T14:33:41;4.22;;;2.08;;
23394;SDS011;11870;53.084;18.206;2023-03-14T14:37:00;4.80;;;1.95;;
23394;SDS011;11870;53.084;18.206;2023-03-14T14:39:20;4.90;;;1.95;;
23394;SDS011;11870;53.084;18.206;2023-03-14T14:41:49;5.60;;;2.15;;
23394;SDS011;11870;53.084;18.206;2023-03-14T14:44:21;4.80;;;2.10;;
23394;SDS011;11870;53.084;18.206;2023-03-14T14:47:13;5.85;;;2.58;;
23394;SDS011;11870;53.084;18.206;2023-03-14T14:49:40;4.38;;;2.10;;
23394;SDS011;11870;53.084;18.206;2023-03-14T14:52:13;3.70;;;1.98;;
23394;SDS011;11870;53.084;18.206;2023-03-14T14:54:43;4.07;;;1.98;;
23394;SDS011;11870;53.084;18.206;2023-03-14T14:57:20;2.92;;;1.77;;
23394;SDS011;11870;53.084;18.206;2023-03-14T14:59:56;4.93;;;1.80;;
23394;SDS011;11870;53.084;18.206;2023-03-14T15:02:35;5.03;;;1.70;;
23394;SDS011;11870;53.084;18.206;2023-03-14T15:05:21;4.80;;;1.90;;
23394;SDS011;11870;53.084;18.206;2023-03-14T15:07:49;3.40;;;1.80;;
23394;SDS011;11870;53.084;18.206;2023-03-14T15:10:17;3.53;;;1.63;;
23394;SDS011;11870;53.084;18.206;2023-03-14T15:12:44;4.43;;;1.65;;
23394;SDS011;11870;53.084;18.206;2023-03-14T15:15:13;7.10;;;1.70;;
23394;SDS011;11870;53.084;18.206;2023-03-14T15:17:39;4.20;;;1.60;;
23394;SDS011;11870;53.084;18.206;2023-03-14T15:20:10;2.88;;;1.30;;
23394;SDS011;11870;53.084;18.206;2023-03-14T15:22:38;2.20;;;1.23;;
23394;SDS011;11870;53.084;18.206;2023-03-14T15:25:06;2.13;;;1.23;;
23394;SDS011;11870;53.084;18.206;2023-03-14T15:27:33;5.53;;;1.10;;
23394;SDS011;11870;53.084;18.206;2023-03-14T15:29:59;2.97;;;1.33;;
23394;SDS011;11870;53.084;18.206;2023-03-14T15:32:27;2.35;;;1.25;;
23394;SDS011;11870;53.084;18.206;2023-03-14T15:34:54;4.35;;;1.33;;